Time;durP1;ratioP1;P1;durP2;ratioP2;P2;SDS_P1;SDS_P2;PMS_P1;PMS_P2;Temp;Humidity;BMP_temperature;BMP_pressure;BME280_temperature;BME280_humidity;BME280_pressure;Samples;Min_cycle;Max_cycle;Signal;HPM_P1;HPM_P2
2021/12/30 00:01:46;;;;;;;36.67;7.15;;;8.90;99.90;;;;;;5008754;28;20410;-85
2021/12/30 00:04:13;;;;;;;37.60;7.60;;;8.80;99.90;;;;;;5018749;28;20104;-85
2021/12/30 00:06:40;;;;;;;26.10;7.20;;;8.80;99.90;;;;;;5019184;28;20045;-85
2021/12/30 00:09:11;;;;;;;33.80;7.25;;;8.80;99.90;;;;;;5006233;28;20116;-85
2021/12/30 00:11:38;;;;;;;31.15;7.30;;;8.80;99.90;;;;;;5019887;28;20250;-85
2021/12/30 00:14:05;;;;;;;36.60;9.93;;;8.80;99.90;;;;;;4996537;28;20498;-85
2021/12/30 00:16:30;;;;;;;39.25;8.00;;;8.80;99.90;;;;;;4996769;28;20127;-85
2021/12/30 00:18:56;;;;;;;36.72;7.93;;;8.70;99.90;;;;;;4997839;28;20669;-85
2021/12/30 00:21:23;;;;;;;39.83;7.43;;;8.70;99.90;;;;;;5005148;28;20509;-85
2021/12/30 00:23:50;;;;;;;31.13;7.10;;;8.70;99.90;;;;;;5002908;28;20052;-85
2021/12/30 00:26:16;;;;;;;39.90;7.63;;;8.70;99.90;;;;;;5004827;28;20271;-85
2021/12/30 00:28:42;;;;;;;35.50;7.85;;;8.70;99.90;;;;;;5021418;28;20084;-85
2021/12/30 00:31:08;;;;;;;37.15;8.13;;;8.60;99.90;;;;;;4994479;28;20033;-86
2021/12/30 00:33:34;;;;;;;37.00;7.78;;;8.60;99.90;;;;;;4980341;28;20124;-85
2021/12/30 00:36:06;;;;;;;45.65;7.68;;;8.70;99.90;;;;;;5022395;28;20048;-85
2021/12/30 00:38:32;;;;;;;32.25;7.50;;;8.60;99.90;;;;;;5020146;28;20040;-86
2021/12/30 00:40:58;;;;;;;40.03;8.07;;;8.50;99.90;;;;;;5019629;28;20655;-85
2021/12/30 00:43:24;;;;;;;36.80;7.50;;;8.50;99.90;;;;;;5002532;28;20121;-85
2021/12/30 00:45:50;;;;;;;48.90;7.20;;;8.40;99.90;;;;;;5004142;28;20036;-85
2021/12/30 00:48:17;;;;;;;28.45;6.80;;;8.50;99.90;;;;;;5004517;28;20057;-85
2021/12/30 00:50:45;;;;;;;48.88;7.57;;;8.50;99.90;;;;;;5003926;28;20041;-85
2021/12/30 00:53:11;;;;;;;49.35;8.20;;;8.40;99.90;;;;;;4997375;28;20029;-85
2021/12/30 00:55:38;;;;;;;39.38;7.88;;;8.40;99.90;;;;;;5010889;28;20486;-84
2021/12/30 00:58:05;;;;;;;39.15;6.70;;;8.30;99.90;;;;;;5004864;28;20056;-85
2021/12/30 01:00:31;;;;;;;50.03;7.90;;;8.40;99.90;;;;;;5007434;28;20086;-85
2021/12/30 01:02:57;;;;;;;37.03;6.72;;;8.30;99.90;;;;;;5028823;28;20083;-85
2021/12/30 01:05:24;;;;;;;34.20;7.32;;;8.30;99.90;;;;;;4999589;28;20104;-85
2021/12/30 01:07:50;;;;;;;41.45;8.15;;;8.30;99.90;;;;;;5029621;28;20034;-85
2021/12/30 01:10:17;;;;;;;41.80;7.75;;;8.30;99.90;;;;;;5019469;28;20049;-85
2021/12/30 01:12:43;;;;;;;52.72;7.60;;;8.20;99.90;;;;;;4997791;28;20516;-85
2021/12/30 01:15:12;;;;;;;41.22;7.68;;;8.10;99.90;;;;;;5021124;28;20049;-85
2021/12/30 01:17:47;;;;;;;48.90;7.53;;;8.10;99.90;;;;;;5024886;28;20041;-85
2021/12/30 01:20:15;;;;;;;39.88;8.23;;;8.10;99.90;;;;;;5001342;28;20045;-85
2021/12/30 01:22:41;;;;;;;36.17;7.32;;;8.00;99.90;;;;;;5029881;28;20033;-85
2021/12/30 01:25:08;;;;;;;50.40;7.43;;;8.00;99.90;;;;;;5021337;28;20048;-85
2021/12/30 01:27:39;;;;;;;44.75;8.15;;;7.90;99.90;;;;;;5014425;28;20033;-85
2021/12/30 01:30:07;;;;;;;42.22;7.40;;;7.90;99.90;;;;;;5008375;28;20075;-85
2021/12/30 01:32:33;;;;;;;34.25;7.22;;;7.90;99.90;;;;;;5004808;28;20041;-85
2021/12/30 01:35:00;;;;;;;43.42;8.27;;;7.90;99.90;;;;;;4980746;28;20402;-85
2021/12/30 01:37:26;;;;;;;33.40;7.00;;;7.80;99.90;;;;;;5021272;28;20037;-84
2021/12/30 01:39:53;;;;;;;42.88;8.32;;;7.80;99.90;;;;;;5004474;28;20036;-85
2021/12/30 01:42:19;;;;;;;39.60;7.28;;;7.90;99.90;;;;;;5028386;28;20049;-85
2021/12/30 01:44:45;;;;;;;47.95;7.95;;;7.80;99.90;;;;;;4996937;28;20044;-85
2021/12/30 01:47:11;;;;;;;33.05;7.60;;;7.80;99.90;;;;;;5012975;28;20056;-84
2021/12/30 01:49:37;;;;;;;32.55;6.82;;;7.70;99.90;;;;;;5007124;28;20046;-85
2021/12/30 01:52:04;;;;;;;37.47;8.00;;;7.70;99.90;;;;;;5005783;28;20219;-85
2021/12/30 01:54:29;;;;;;;43.40;7.80;;;7.70;99.90;;;;;;5004191;28;20043;-85
2021/12/30 01:57:03;;;;;;;46.25;7.60;;;7.80;99.90;;;;;;5003549;28;20041;-85
2021/12/30 01:59:29;;;;;;;43.08;7.43;;;7.70;99.90;;;;;;5000056;28;20463;-85
2021/12/30 02:01:58;;;;;;;34.80;6.68;;;7.80;99.90;;;;;;5023179;28;20088;-84
2021/12/30 02:04:26;;;;;;;44.80;7.63;;;7.80;99.90;;;;;;5006501;28;20045;-85
2021/12/30 02:06:53;;;;;;;46.47;8.00;;;7.80;99.90;;;;;;5005341;28;20040;-85
2021/12/30 02:09:20;;;;;;;47.10;7.45;;;7.70;99.90;;;;;;5000751;28;20087;-85
2021/12/30 02:11:48;;;;;;;35.78;7.57;;;7.70;99.90;;;;;;4995438;28;20136;-85
2021/12/30 02:14:14;;;;;;;44.85;9.35;;;8.20;99.90;;;;;;5027583;28;20089;-85
2021/12/30 02:16:40;;;;;;;38.88;8.45;;;7.70;99.90;;;;;;5006161;28;20102;-85
2021/12/30 02:19:06;;;;;;;58.35;8.68;;;8.00;99.90;;;;;;4999503;28;20045;-85
2021/12/30 02:21:32;;;;;;;44.40;8.93;;;7.80;99.90;;;;;;5000653;28;20132;-85
2021/12/30 02:23:58;;;;;;;49.58;8.63;;;7.90;99.90;;;;;;4996085;28;20536;-85
2021/12/30 02:26:25;;;;;;;48.08;9.00;;;7.80;99.90;;;;;;4996647;28;20041;-85
2021/12/30 02:28:51;;;;;;;45.03;8.18;;;7.80;99.90;;;;;;5016078;28;20078;-85
2021/12/30 02:31:20;;;;;;;53.28;10.38;;;7.80;99.90;;;;;;5016266;28;20125;-85
2021/12/30 02:33:47;;;;;;;36.13;8.93;;;7.90;99.90;;;;;;5010046;28;20043;-85
2021/12/30 02:36:16;;;;;;;46.05;9.82;;;7.90;99.90;;;;;;5000980;28;20091;-85
2021/12/30 02:38:45;;;;;;;42.88;9.50;;;8.00;99.90;;;;;;5012009;28;20387;-85
2021/12/30 02:41:17;;;;;;;52.15;11.00;;;8.00;99.90;;;;;;5013672;28;20071;-85
2021/12/30 02:43:43;;;;;;;48.58;10.57;;;8.10;99.90;;;;;;5024618;28;20051;-85
2021/12/30 02:46:09;;;;;;;47.58;10.05;;;8.00;99.90;;;;;;4998424;28;20086;-86
2021/12/30 02:48:38;;;;;;;50.67;11.43;;;8.10;99.90;;;;;;5000762;28;20033;-85
2021/12/30 02:51:06;;;;;;;48.13;11.75;;;8.10;99.90;;;;;;5014660;28;20106;-85
2021/12/30 02:53:33;;;;;;;70.25;11.85;;;8.20;99.90;;;;;;5005465;28;20033;-86
2021/12/30 02:55:59;;;;;;;52.60;13.25;;;8.20;99.90;;;;;;5013903;28;20028;-85
2021/12/30 02:58:26;;;;;;;57.42;15.77;;;8.20;99.90;;;;;;5005275;28;20044;-85
2021/12/30 03:01:03;;;;;;;67.97;14.88;;;8.30;99.90;;;;;;5028853;28;20055;-85
2021/12/30 03:03:29;;;;;;;63.03;16.35;;;8.30;99.90;;;;;;5019977;28;20767;-86
2021/12/30 03:06:01;;;;;;;63.00;15.45;;;8.40;99.90;;;;;;5012586;28;20123;-86
2021/12/30 03:08:27;;;;;;;58.95;15.93;;;8.40;99.90;;;;;;5027193;28;20040;-85
2021/12/30 03:10:53;;;;;;;76.60;16.90;;;8.50;99.90;;;;;;5028008;28;20037;-85
2021/12/30 03:13:29;;;;;;;61.33;17.23;;;8.60;99.90;;;;;;5003581;28;20037;-85
2021/12/30 03:15:55;;;;;;;58.13;16.70;;;8.60;99.90;;;;;;5028691;28;20051;-85
2021/12/30 03:18:20;;;;;;;57.13;18.08;;;8.60;99.90;;;;;;4995548;28;20525;-85
2021/12/30 03:20:46;;;;;;;53.47;16.77;;;8.60;99.90;;;;;;4994554;28;20541;-85
2021/12/30 03:23:12;;;;;;;72.88;19.05;;;8.70;99.90;;;;;;5005281;28;20509;-85
2021/12/30 03:25:37;;;;;;;70.88;19.30;;;8.80;99.90;;;;;;5001560;28;20124;-85
2021/12/30 03:28:03;;;;;;;72.60;20.52;;;9.10;99.90;;;;;;4996469;28;20409;-85
2021/12/30 03:30:29;;;;;;;68.65;19.17;;;8.90;99.90;;;;;;5001619;28;20038;-84
2021/12/30 03:32:55;;;;;;;69.35;20.15;;;9.00;99.90;;;;;;5003987;28;20143;-85
2021/12/30 03:35:20;;;;;;;83.00;20.77;;;9.00;99.90;;;;;;5000863;28;20049;-85
2021/12/30 03:37:46;;;;;;;67.32;19.58;;;9.00;99.90;;;;;;5000514;28;20037;-85
2021/12/30 03:40:14;;;;;;;63.97;18.73;;;9.00;99.90;;;;;;5007365;28;20040;-85
2021/12/30 03:42:41;;;;;;;58.25;18.65;;;9.00;99.90;;;;;;5013587;28;20041;-86
2021/12/30 03:45:09;;;;;;;69.20;19.38;;;9.10;99.90;;;;;;5024063;28;20042;-85
2021/12/30 03:47:39;;;;;;;60.10;19.02;;;9.20;99.90;;;;;;4997344;28;20068;-85
2021/12/30 03:50:07;;;;;;;66.82;19.20;;;9.10;99.90;;;;;;4997679;28;20036;-86
2021/12/30 03:52:33;;;;;;;59.65;19.20;;;9.20;99.90;;;;;;5005405;28;20111;-85
2021/12/30 03:54:58;;;;;;;79.65;19.50;;;9.20;99.90;;;;;;4994783;28;20155;-85
2021/12/30 03:57:24;;;;;;;63.80;18.15;;;9.20;99.90;;;;;;4994970;28;20041;-85
2021/12/30 03:59:50;;;;;;;63.42;18.25;;;9.30;99.90;;;;;;5006092;28;20124;-85
2021/12/30 04:02:16;;;;;;;60.35;19.52;;;9.30;99.90;;;;;;5004960;28;20065;-85
2021/12/30 04:04:42;;;;;;;55.50;18.48;;;9.30;99.90;;;;;;4991428;28;20044;-85
2021/12/30 04:07:08;;;;;;;65.15;19.50;;;9.30;99.90;;;;;;5031541;28;20476;-85
2021/12/30 04:09:34;;;;;;;73.15;19.90;;;9.30;99.90;;;;;;5015208;28;20070;-85
2021/12/30 04:11:59;;;;;;;63.20;18.25;;;9.40;99.90;;;;;;5031606;28;20037;-85
2021/12/30 04:14:26;;;;;;;66.07;18.88;;;9.40;99.90;;;;;;5032257;28;20093;-85
2021/12/30 04:16:55;;;;;;;69.93;18.60;;;9.40;99.90;;;;;;5015228;28;20033;-85
2021/12/30 04:19:21;;;;;;;71.28;18.60;;;9.40;99.90;;;;;;5000474;28;20456;-85
2021/12/30 04:21:46;;;;;;;62.03;18.92;;;9.50;99.90;;;;;;5002269;28;20040;-85
2021/12/30 04:24:12;;;;;;;53.17;17.25;;;9.50;99.90;;;;;;4997181;28;20037;-86
2021/12/30 04:26:38;;;;;;;57.95;18.50;;;9.50;99.90;;;;;;4994607;28;20127;-85
2021/12/30 04:29:04;;;;;;;53.15;17.00;;;9.60;99.90;;;;;;4993959;28;20063;-85
2021/12/30 04:31:31;;;;;;;59.90;16.70;;;9.60;99.90;;;;;;5011702;28;20106;-85
2021/12/30 04:33:58;;;;;;;49.53;17.38;;;9.60;99.90;;;;;;5009743;28;20041;-85
2021/12/30 04:36:24;;;;;;;63.90;17.25;;;9.60;99.90;;;;;;4997158;28;20497;-85
2021/12/30 04:38:50;;;;;;;57.72;17.23;;;9.60;99.90;;;;;;5024056;28;20044;-85
2021/12/30 04:41:16;;;;;;;60.13;17.75;;;9.60;99.90;;;;;;4997854;28;20406;-85
2021/12/30 04:43:42;;;;;;;56.08;17.52;;;9.70;99.90;;;;;;5008529;28;20063;-85
2021/12/30 04:46:08;;;;;;;64.00;17.33;;;9.60;99.90;;;;;;5028867;28;20090;-85
2021/12/30 04:48:33;;;;;;;64.03;17.10;;;9.60;99.90;;;;;;5009577;28;20048;-85
2021/12/30 04:50:59;;;;;;;49.85;15.98;;;9.60;99.90;;;;;;4989097;28;20127;-85
2021/12/30 04:53:25;;;;;;;54.67;17.40;;;9.60;99.90;;;;;;5014830;28;20068;-85
2021/12/30 04:55:51;;;;;;;58.17;17.38;;;9.60;99.90;;;;;;5016858;28;20116;-85
2021/12/30 04:58:17;;;;;;;60.72;18.35;;;9.60;99.90;;;;;;5001176;28;20500;-85
2021/12/30 05:00:44;;;;;;;62.60;17.60;;;9.60;99.90;;;;;;5022122;28;20056;-85
2021/12/30 05:03:14;;;;;;;57.50;17.80;;;9.60;99.90;;;;;;5033124;28;20055;-85
2021/12/30 05:05:45;;;;;;;51.35;16.45;;;9.60;99.90;;;;;;5031827;28;20052;-85
2021/12/30 05:08:14;;;;;;;58.75;19.52;;;9.70;99.90;;;;;;5033073;28;20405;-87
2021/12/30 05:10:40;;;;;;;71.63;20.05;;;9.80;99.90;;;;;;4991888;28;20033;-84
2021/12/30 05:13:07;;;;;;;80.78;21.25;;;9.80;99.90;;;;;;5017787;28;20033;-84
2021/12/30 05:15:34;;;;;;;75.93;20.35;;;9.80;99.90;;;;;;5011447;28;20071;-84
2021/12/30 05:18:00;;;;;;;87.75;22.67;;;9.80;99.90;;;;;;5034139;28;20090;-84
2021/12/30 05:20:26;;;;;;;82.32;22.35;;;9.80;99.90;;;;;;5015589;28;20079;-84
2021/12/30 05:22:51;;;;;;;79.35;22.63;;;9.80;99.90;;;;;;5012959;28;20068;-84
2021/12/30 05:25:18;;;;;;;82.65;21.98;;;9.80;99.90;;;;;;5010654;28;20082;-85
2021/12/30 05:27:45;;;;;;;74.47;21.25;;;9.80;99.90;;;;;;5012181;28;20033;-84
2021/12/30 05:30:13;;;;;;;75.90;23.85;;;9.90;99.90;;;;;;5024290;28;20037;-84
2021/12/30 05:32:39;;;;;;;90.45;23.35;;;9.90;99.90;;;;;;5010587;28;20040;-84
2021/12/30 05:35:06;;;;;;;78.63;22.75;;;9.90;99.90;;;;;;5027426;28;20040;-83
2021/12/30 05:37:32;;;;;;;66.72;21.50;;;9.90;99.90;;;;;;5009666;28;20045;-84
2021/12/30 05:39:58;;;;;;;67.05;21.70;;;9.90;99.90;;;;;;5008748;28;20037;-84
2021/12/30 05:42:24;;;;;;;71.82;21.75;;;9.90;99.90;;;;;;5005363;28;20081;-84
2021/12/30 05:44:51;;;;;;;57.88;19.40;;;9.90;99.90;;;;;;5014127;28;20756;-84
2021/12/30 05:47:17;;;;;;;59.67;18.35;;;10.00;99.90;;;;;;4999885;28;20069;-84
2021/12/30 05:49:43;;;;;;;67.80;19.02;;;10.00;99.90;;;;;;4998893;28;20091;-84
2021/12/30 05:52:08;;;;;;;61.38;18.10;;;10.00;99.90;;;;;;5015357;28;20034;-83
2021/12/30 05:54:34;;;;;;;52.20;17.20;;;10.10;99.90;;;;;;4983495;28;20135;-84
2021/12/30 05:57:00;;;;;;;62.33;16.48;;;10.10;99.90;;;;;;5018977;28;20047;-83
2021/12/30 05:59:25;;;;;;;42.92;15.27;;;10.10;99.90;;;;;;5029113;28;20037;-84
2021/12/30 06:01:51;;;;;;;46.22;14.93;;;10.10;99.90;;;;;;5015849;28;20048;-83
2021/12/30 06:04:17;;;;;;;43.20;14.15;;;10.20;99.90;;;;;;5006639;28;20049;-83
2021/12/30 06:06:42;;;;;;;41.10;14.63;;;10.20;99.90;;;;;;5021501;28;20151;-83
2021/12/30 06:09:08;;;;;;;47.20;15.90;;;10.20;99.90;;;;;;5004836;28;20049;-84
2021/12/30 06:11:34;;;;;;;54.03;16.77;;;10.30;99.90;;;;;;5004092;28;20034;-84
2021/12/30 06:14:00;;;;;;;54.78;16.75;;;10.30;99.90;;;;;;5014554;28;20090;-84
2021/12/30 06:16:25;;;;;;;57.65;16.55;;;10.30;99.90;;;;;;5005525;28;20429;-84
2021/12/30 06:18:51;;;;;;;50.42;16.08;;;10.30;99.90;;;;;;5032791;28;20033;-85
2021/12/30 06:21:17;;;;;;;66.10;18.42;;;10.50;99.90;;;;;;5009957;28;20037;-84
2021/12/30 06:23:42;;;;;;;59.45;18.63;;;10.50;99.90;;;;;;4997131;28;20041;-84
2021/12/30 06:26:08;;;;;;;62.38;18.58;;;10.50;99.90;;;;;;5014714;28;20041;-84
2021/12/30 06:28:34;;;;;;;64.47;18.40;;;10.50;99.90;;;;;;4983793;28;20076;-84
2021/12/30 06:30:59;;;;;;;80.22;20.55;;;10.60;99.90;;;;;;4999663;28;20025;-85
2021/12/30 06:33:25;;;;;;;69.00;19.55;;;10.60;99.90;;;;;;4983582;28;20707;-85
2021/12/30 06:35:51;;;;;;;86.50;21.30;;;10.60;99.90;;;;;;4985903;28;20527;-85
2021/12/30 06:38:16;;;;;;;63.08;18.42;;;10.70;99.90;;;;;;4993043;28;20041;-85
2021/12/30 06:40:42;;;;;;;69.43;20.55;;;10.80;99.90;;;;;;5006058;28;20040;-85
2021/12/30 06:43:09;;;;;;;80.97;21.65;;;10.70;99.90;;;;;;5007208;28;20048;-85
2021/12/30 06:45:35;;;;;;;76.25;21.98;;;10.70;99.90;;;;;;5022102;28;20114;-84
2021/12/30 06:48:01;;;;;;;95.60;22.73;;;10.80;99.90;;;;;;5004323;28;20115;-85
2021/12/30 06:50:31;;;;;;;76.72;19.08;;;10.80;99.90;;;;;;4999487;28;20037;-86
2021/12/30 06:52:57;;;;;;;88.57;21.95;;;10.90;99.90;;;;;;5004131;28;20060;-85
2021/12/30 06:55:23;;;;;;;79.05;21.50;;;10.90;99.90;;;;;;4997992;28;20045;-84
2021/12/30 06:57:52;;;;;;;88.90;23.33;;;10.90;99.90;;;;;;4997328;28;20049;-85
2021/12/30 07:00:21;;;;;;;80.40;21.50;;;10.90;99.90;;;;;;4983495;28;20473;-84
2021/12/30 07:02:46;;;;;;;90.30;22.23;;;11.00;99.90;;;;;;5009196;28;20054;-85
2021/12/30 07:05:13;;;;;;;84.22;23.02;;;11.00;99.90;;;;;;5018295;28;20048;-84
2021/12/30 07:07:38;;;;;;;66.35;19.55;;;11.00;99.90;;;;;;5033783;28;20033;-84
2021/12/30 07:10:05;;;;;;;60.35;17.50;;;11.00;99.90;;;;;;5009962;28;20500;-84
2021/12/30 07:12:31;;;;;;;60.22;18.77;;;11.00;99.90;;;;;;5000605;28;20033;-84
2021/12/30 07:14:57;;;;;;;62.15;18.27;;;11.10;99.90;;;;;;4998925;28;20167;-85
2021/12/30 07:17:26;;;;;;;68.43;19.25;;;11.10;99.90;;;;;;5007132;28;20459;-85
2021/12/30 07:19:52;;;;;;;64.60;17.48;;;11.10;99.90;;;;;;5027503;28;20076;-84
2021/12/30 07:22:17;;;;;;;53.95;17.80;;;11.10;99.90;;;;;;5017389;28;20099;-84
2021/12/30 07:24:43;;;;;;;71.05;20.38;;;11.10;99.90;;;;;;4998654;28;20041;-84
2021/12/30 07:27:09;;;;;;;70.20;19.20;;;11.10;99.90;;;;;;5014263;28;20037;-83
2021/12/30 07:29:34;;;;;;;64.72;17.58;;;11.10;99.90;;;;;;5001052;28;20041;-84
2021/12/30 07:32:00;;;;;;;44.65;16.38;;;11.20;99.90;;;;;;5010147;28;20063;-84
2021/12/30 07:34:26;;;;;;;50.45;15.40;;;11.20;99.90;;;;;;4997663;28;20047;-84
2021/12/30 07:36:51;;;;;;;54.05;16.65;;;11.20;99.90;;;;;;5005720;28;20034;-84
2021/12/30 07:39:17;;;;;;;43.70;14.02;;;11.20;99.90;;;;;;5004780;28;20099;-84
2021/12/30 07:41:43;;;;;;;50.72;15.95;;;11.20;99.90;;;;;;5019565;28;20037;-83
2021/12/30 07:44:09;;;;;;;35.95;13.20;;;11.20;99.90;;;;;;5008914;28;20037;-84
2021/12/30 07:46:35;;;;;;;36.05;13.45;;;11.30;99.90;;;;;;5010117;28;20056;-84
2021/12/30 07:49:00;;;;;;;35.00;12.77;;;11.20;99.90;;;;;;4995905;28;20474;-85
2021/12/30 07:51:28;;;;;;;33.70;12.20;;;11.20;99.90;;;;;;5000691;28;20695;-84
2021/12/30 07:53:54;;;;;;;29.35;11.27;;;11.30;99.90;;;;;;5008324;28;20048;-84
2021/12/30 07:56:19;;;;;;;27.52;9.73;;;11.30;99.90;;;;;;4994760;28;20565;-84
2021/12/30 07:58:45;;;;;;;20.85;8.25;;;11.30;99.90;;;;;;4994400;28;20106;-84
2021/12/30 08:01:13;;;;;;;26.70;9.18;;;11.30;99.90;;;;;;4995668;28;20075;-84
2021/12/30 08:03:38;;;;;;;23.33;9.65;;;11.30;99.90;;;;;;5011942;28;20503;-84
2021/12/30 08:06:04;;;;;;;22.77;9.05;;;11.30;99.90;;;;;;4997023;28;20182;-84
2021/12/30 08:08:30;;;;;;;23.27;8.98;;;11.30;99.90;;;;;;4997160;28;20401;-84
2021/12/30 08:10:56;;;;;;;15.27;7.30;;;11.30;99.90;;;;;;4977938;28;20111;-84
2021/12/30 08:13:23;;;;;;;18.77;8.23;;;11.30;99.90;;;;;;4997533;28;20495;-84
2021/12/30 08:15:49;;;;;;;17.67;8.35;;;11.30;99.90;;;;;;5010088;28;20064;-84
2021/12/30 08:18:15;;;;;;;16.38;7.43;;;11.30;99.90;;;;;;5010653;28;20111;-84
2021/12/30 08:20:41;;;;;;;14.23;6.70;;;11.30;99.90;;;;;;5029366;28;20709;-83
2021/12/30 08:23:07;;;;;;;12.35;6.18;;;11.30;99.90;;;;;;5020146;28;20048;-84
2021/12/30 08:25:33;;;;;;;11.38;6.05;;;11.30;99.90;;;;;;4997920;28;20041;-84
2021/12/30 08:27:59;;;;;;;11.23;5.82;;;11.30;99.90;;;;;;5028468;28;20489;-84
2021/12/30 08:30:24;;;;;;;10.57;5.07;;;11.40;99.90;;;;;;4999027;28;20033;-84
2021/12/30 08:32:51;;;;;;;9.07;5.40;;;11.40;99.90;;;;;;4996963;28;20036;-84
2021/12/30 08:35:17;;;;;;;10.52;5.20;;;11.40;99.90;;;;;;5013076;28;20466;-84
2021/12/30 08:37:44;;;;;;;11.00;5.35;;;11.40;99.90;;;;;;4987010;28;20040;-83
2021/12/30 08:40:12;;;;;;;9.40;5.63;;;11.40;99.90;;;;;;5009257;28;20044;-85
2021/12/30 08:42:38;;;;;;;7.63;5.03;;;11.40;99.90;;;;;;5007959;28;20067;-86
2021/12/30 08:45:06;;;;;;;10.73;5.80;;;11.40;99.90;;;;;;5018746;28;20494;-86
2021/12/30 08:47:32;;;;;;;9.43;5.40;;;11.40;99.90;;;;;;5006178;28;20025;-83
2021/12/30 08:49:58;;;;;;;12.98;5.63;;;11.40;99.90;;;;;;5021699;28;20044;-83
2021/12/30 08:52:26;;;;;;;10.77;6.25;;;11.50;99.90;;;;;;5017379;28;20041;-84
2021/12/30 08:54:53;;;;;;;10.88;6.53;;;11.50;99.90;;;;;;4988158;28;20033;-81
2021/12/30 08:57:20;;;;;;;13.13;6.90;;;11.50;99.90;;;;;;5013575;28;20049;-80
2021/12/30 08:59:47;;;;;;;14.18;7.40;;;11.50;99.90;;;;;;4996308;28;21032;-81
2021/12/30 09:02:13;;;;;;;14.50;7.22;;;11.50;99.90;;;;;;4991803;28;21160;-81
2021/12/30 09:04:42;;;;;;;15.18;7.55;;;11.60;99.90;;;;;;5017697;28;20096;-84
2021/12/30 09:07:09;;;;;;;15.63;7.72;;;11.60;99.90;;;;;;5003164;28;20494;-81
2021/12/30 09:09:35;;;;;;;17.55;9.05;;;11.70;99.90;;;;;;4997921;28;20413;-81
2021/12/30 09:12:01;;;;;;;20.13;8.90;;;11.70;99.90;;;;;;5002385;28;20124;-81
2021/12/30 09:14:26;;;;;;;21.60;10.13;;;11.70;99.90;;;;;;4986145;28;20125;-81
2021/12/30 09:16:52;;;;;;;22.55;11.93;;;11.80;99.90;;;;;;5005865;28;20113;-81
2021/12/30 09:19:19;;;;;;;16.60;10.10;;;11.80;99.90;;;;;;5005145;28;20501;-81
2021/12/30 09:21:45;;;;;;;22.08;10.88;;;11.80;99.90;;;;;;5010141;28;20581;-81
2021/12/30 09:24:11;;;;;;;16.42;10.35;;;11.80;99.90;;;;;;4988581;28;20037;-80
2021/12/30 09:26:39;;;;;;;19.23;10.70;;;11.80;99.90;;;;;;5003789;28;20141;-81
2021/12/30 09:29:10;;;;;;;21.15;11.98;;;11.80;99.90;;;;;;5022635;28;20043;-83
2021/12/30 09:31:45;;;;;;;19.90;11.20;;;11.80;99.90;;;;;;5011543;28;20041;-83
2021/12/30 09:34:11;;;;;;;24.42;11.85;;;11.80;99.90;;;;;;5004735;28;20045;-84
2021/12/30 09:36:37;;;;;;;19.33;12.00;;;11.90;99.90;;;;;;5022838;28;20037;-83
2021/12/30 09:39:08;;;;;;;23.45;11.18;;;11.80;99.90;;;;;;4997667;28;20102;-83
2021/12/30 09:41:37;;;;;;;21.10;11.82;;;11.90;99.90;;;;;;5001935;28;20060;-84
2021/12/30 09:44:04;;;;;;;21.73;12.20;;;11.90;99.90;;;;;;5016734;28;20037;-85
2021/12/30 09:46:31;;;;;;;23.40;13.10;;;11.80;99.90;;;;;;5003983;28;20048;-83
2021/12/30 09:48:57;;;;;;;23.33;12.73;;;11.80;99.90;;;;;;4987493;28;20041;-83
2021/12/30 09:51:22;;;;;;;28.10;13.55;;;11.90;99.90;;;;;;5004898;28;20485;-81
2021/12/30 09:53:52;;;;;;;27.73;13.63;;;11.80;99.90;;;;;;4986774;28;20621;-82
2021/12/30 09:56:19;;;;;;;22.48;11.73;;;11.80;99.90;;;;;;4972619;28;20118;-83
2021/12/30 09:58:46;;;;;;;24.83;11.50;;;11.80;99.90;;;;;;5004360;28;20106;-82
2021/12/30 10:01:12;;;;;;;25.55;12.15;;;11.80;99.90;;;;;;5002862;28;20037;-82
2021/12/30 10:03:38;;;;;;;26.75;12.95;;;11.90;99.90;;;;;;5015982;28;20076;-83
2021/12/30 10:06:10;;;;;;;23.85;12.18;;;11.80;99.90;;;;;;5019175;28;20659;-83
2021/12/30 10:08:41;;;;;;;20.30;10.77;;;11.80;99.90;;;;;;5018057;28;20663;-83
2021/12/30 10:11:13;;;;;;;24.67;11.23;;;11.80;99.90;;;;;;5000389;28;20041;-83
2021/12/30 10:13:47;;;;;;;22.55;10.70;;;11.80;99.90;;;;;;5005137;28;20118;-82
2021/12/30 10:16:15;;;;;;;25.75;11.65;;;11.80;99.90;;;;;;5014686;28;20029;-84
2021/12/30 10:18:55;;;;;;;17.35;10.80;;;11.80;99.90;;;;;;4988914;28;20382;-82
2021/12/30 10:21:23;;;;;;;17.55;10.85;;;11.80;99.90;;;;;;4996006;28;20059;-82
2021/12/30 10:23:55;;;;;;;22.30;10.70;;;11.80;99.90;;;;;;5021825;28;20103;-87
2021/12/30 10:26:21;;;;;;;18.80;10.83;;;11.80;99.90;;;;;;5030979;28;20041;-83
2021/12/30 10:29:05;;;;;;;19.80;10.07;;;11.80;99.90;;;;;;5036387;28;20039;-83
2021/12/30 10:31:33;;;;;;;21.48;9.88;;;11.80;99.90;;;;;;5017013;28;20064;-84
2021/12/30 10:34:02;;;;;;;22.35;10.77;;;11.90;99.90;;;;;;5033097;28;20044;-83
2021/12/30 10:36:33;;;;;;;25.85;11.63;;;11.90;99.90;;;;;;5032119;28;20040;-82
2021/12/30 10:39:28;;;;;;;29.40;12.05;;;11.90;99.90;;;;;;5016694;28;20041;-83
2021/12/30 10:42:06;;;;;;;19.20;10.55;;;11.90;99.90;;;;;;5022364;28;20048;-83
2021/12/30 10:44:54;;;;;;;21.02;10.07;;;11.80;99.90;;;;;;5032443;28;20037;-83
2021/12/30 10:47:21;;;;;;;28.60;11.48;;;11.90;99.90;;;;;;5033095;28;20124;-84
2021/12/30 10:49:58;;;;;;;27.08;10.50;;;11.90;99.90;;;;;;5016717;28;20746;-84
2021/12/30 10:52:26;;;;;;;23.08;10.30;;;11.90;99.90;;;;;;5016681;28;20098;-84
2021/12/30 10:54:52;;;;;;;20.40;9.50;;;11.90;99.90;;;;;;5016650;28;20082;-83
2021/12/30 10:57:18;;;;;;;19.27;8.90;;;11.90;99.90;;;;;;4999982;28;20494;-83
2021/12/30 10:59:50;;;;;;;22.92;9.02;;;11.90;99.90;;;;;;4999531;28;20490;-83
2021/12/30 11:02:21;;;;;;;22.23;8.85;;;11.90;99.90;;;;;;5032933;28;20045;-84
2021/12/30 11:04:49;;;;;;;19.30;6.82;;;11.90;99.90;;;;;;5032506;28;20061;-84
2021/12/30 11:07:21;;;;;;;21.80;8.93;;;11.90;99.90;;;;;;5016067;28;20036;-83
2021/12/30 11:09:48;;;;;;;20.60;8.40;;;11.90;99.90;;;;;;5016282;28;20494;-84
2021/12/30 11:12:14;;;;;;;13.95;6.75;;;11.90;99.90;;;;;;4996565;28;20041;-83
2021/12/30 11:14:39;;;;;;;15.10;6.80;;;11.90;99.90;;;;;;5004987;28;20115;-83
2021/12/30 11:17:17;;;;;;;24.13;7.18;;;11.90;99.90;;;;;;5010524;28;20132;-83
2021/12/30 11:19:48;;;;;;;16.92;6.25;;;11.90;99.90;;;;;;4988786;28;20115;-83
2021/12/30 11:22:17;;;;;;;16.17;7.57;;;11.90;99.90;;;;;;5030673;28;20040;-83
2021/12/30 11:24:44;;;;;;;25.48;8.07;;;11.90;99.90;;;;;;5032510;28;20037;-83
2021/12/30 11:27:11;;;;;;;27.63;8.40;;;11.90;99.90;;;;;;5016117;28;20033;-84
2021/12/30 11:29:43;;;;;;;22.48;8.75;;;11.90;99.90;;;;;;5032334;28;20033;-83
2021/12/30 11:32:09;;;;;;;25.50;8.07;;;11.90;99.90;;;;;;5015663;28;20123;-83
2021/12/30 11:34:36;;;;;;;32.45;9.18;;;11.90;99.90;;;;;;4999659;28;20048;-83
2021/12/30 11:37:03;;;;;;;23.42;8.07;;;11.90;99.90;;;;;;5015600;28;20040;-83
2021/12/30 11:39:29;;;;;;;25.65;8.02;;;11.90;99.90;;;;;;5015773;28;20045;-83
2021/12/30 11:42:00;;;;;;;23.52;7.68;;;11.80;99.90;;;;;;5012593;28;20124;-83
2021/12/30 11:44:50;;;;;;;28.75;8.48;;;11.80;99.90;;;;;;5027463;28;20049;-83
2021/12/30 11:47:36;;;;;;;34.38;9.23;;;11.80;99.90;;;;;;5031748;28;20146;-84
2021/12/30 11:50:37;;;;;;;30.10;7.53;;;11.80;99.90;;;;;;5009795;28;20045;-83
2021/12/30 11:53:08;;;;;;;35.58;8.20;;;11.90;99.90;;;;;;5026098;28;20049;-83
2021/12/30 11:55:52;;;;;;;28.23;7.97;;;11.80;99.90;;;;;;5032072;28;20413;-83
2021/12/30 11:58:35;;;;;;;34.53;8.00;;;11.80;99.90;;;;;;5014635;28;20073;-83
2021/12/30 12:01:04;;;;;;;32.75;7.70;;;11.80;99.90;;;;;;5024372;28;20132;-84
2021/12/30 12:03:42;;;;;;;37.25;9.10;;;11.80;99.90;;;;;;5015051;28;20053;-83
2021/12/30 12:06:27;;;;;;;25.15;7.65;;;11.80;99.90;;;;;;5032253;28;20055;-84
2021/12/30 12:08:55;;;;;;;18.70;7.53;;;11.80;99.90;;;;;;5031881;28;20565;-84
2021/12/30 12:11:25;;;;;;;28.85;7.53;;;11.80;99.90;;;;;;5015170;28;20044;-83
2021/12/30 12:13:54;;;;;;;27.10;7.90;;;11.80;99.90;;;;;;5031557;28;20037;-83
2021/12/30 12:16:48;;;;;;;27.20;8.95;;;11.80;99.90;;;;;;5031682;28;20114;-83
2021/12/30 12:19:17;;;;;;;23.52;7.47;;;11.80;99.90;;;;;;4995181;28;20533;-84
2021/12/30 12:21:48;;;;;;;29.55;8.20;;;11.80;99.90;;;;;;4995639;28;20052;-83
2021/12/30 12:24:23;;;;;;;28.52;8.10;;;11.80;99.90;;;;;;5032004;28;20476;-83
2021/12/30 12:26:55;;;;;;;22.95;8.88;;;11.80;99.90;;;;;;5017908;28;20124;-84
2021/12/30 12:29:26;;;;;;;36.05;9.20;;;11.80;99.90;;;;;;5015170;28;20582;-84
2021/12/30 12:31:57;;;;;;;35.70;8.68;;;11.80;99.90;;;;;;5031645;28;20037;-84
2021/12/30 12:34:34;;;;;;;25.85;8.68;;;11.80;99.90;;;;;;5015121;28;20140;-83
2021/12/30 12:37:00;;;;;;;28.30;8.10;;;11.80;99.90;;;;;;5001243;28;20495;-84
2021/12/30 12:39:37;;;;;;;32.88;9.77;;;11.80;99.90;;;;;;4999147;28;20041;-84